sensor_id;sensor_type;location;lat;lon;timestamp;pressure;altitude;pressure_sealevel;temperature;humidity
44697;BME280;57264;47.480;19.354;2023-09-18T00:00:24;99422.16;;;17.64;89.04
44697;BME280;57264;47.480;19.354;2023-09-18T00:02:49;99422.97;;;17.48;90.19
44697;BME280;57264;47.480;19.354;2023-09-18T00:05:14;99422.97;;;17.48;89.98
44697;BME280;57264;47.480;19.354;2023-09-18T00:07:43;99419.28;;;17.49;89.77
44697;BME280;57264;47.480;19.354;2023-09-18T00:10:12;99411.50;;;17.42;90.38
44697;BME280;57264;47.480;19.354;2023-09-18T00:12:38;99415.53;;;17.45;90.03
44697;BME280;57264;47.480;19.354;2023-09-18T00:15:04;99414.44;;;17.46;89.90
44697;BME280;57264;47.480;19.354;2023-09-18T00:17:29;99418.19;;;17.45;90.08
44697;BME280;57264;47.480;19.354;2023-09-18T00:19:55;99413.91;;;17.44;89.96
44697;BME280;57264;47.480;19.354;2023-09-18T00:22:20;99417.53;;;17.38;90.34
44697;BME280;57264;47.480;19.354;2023-09-18T00:24:46;99406.69;;;17.39;90.46
44697;BME280;57264;47.480;19.354;2023-09-18T00:27:11;99412.00;;;17.22;91.17
44697;BME280;57264;47.480;19.354;2023-09-18T00:29:37;99407.03;;;17.26;90.98
44697;BME280;57264;47.480;19.354;2023-09-18T00:32:02;99415.28;;;17.29;90.89
44697;BME280;57264;47.480;19.354;2023-09-18T00:34:28;99408.44;;;17.33;91.15
44697;BME280;57264;47.480;19.354;2023-09-18T00:36:54;99407.69;;;17.16;92.02
44697;BME280;57264;47.480;19.354;2023-09-18T00:39:20;99412.63;;;17.08;92.60
44697;BME280;57264;47.480;19.354;2023-09-18T00:41:45;99407.44;;;17.18;91.70
44697;BME280;57264;47.480;19.354;2023-09-18T00:44:14;99412.84;;;17.06;91.91
44697;BME280;57264;47.480;19.354;2023-09-18T00:46:39;99410.91;;;17.02;92.51
44697;BME280;57264;47.480;19.354;2023-09-18T00:49:05;99408.25;;;17.02;92.16
44697;BME280;57264;47.480;19.354;2023-09-18T00:51:30;99404.19;;;16.94;93.13
44697;BME280;57264;47.480;19.354;2023-09-18T00:53:56;99410.16;;;16.84;93.40
44697;BME280;57264;47.480;19.354;2023-09-18T00:56:21;99415.13;;;16.81;93.56
44697;BME280;57264;47.480;19.354;2023-09-18T00:58:47;99414.38;;;16.85;93.38
44697;BME280;57264;47.480;19.354;2023-09-18T01:01:12;99413.16;;;16.93;92.90
44697;BME280;57264;47.480;19.354;2023-09-18T01:03:39;99412.13;;;16.77;93.66
44697;BME280;57264;47.480;19.354;2023-09-18T01:06:05;99410.88;;;16.80;93.68
44697;BME280;57264;47.480;19.354;2023-09-18T01:08:30;99416.16;;;16.80;93.82
44697;BME280;57264;47.480;19.354;2023-09-18T01:11:06;99407.59;;;16.73;94.30
44697;BME280;57264;47.480;19.354;2023-09-18T01:13:43;99404.66;;;16.74;94.08
44697;BME280;57264;47.480;19.354;2023-09-18T01:16:30;99400.25;;;16.63;94.90
44697;BME280;57264;47.480;19.354;2023-09-18T01:18:57;99410.13;;;16.68;94.61
44697;BME280;57264;47.480;19.354;2023-09-18T01:21:23;99401.28;;;16.62;94.79
44697;BME280;57264;47.480;19.354;2023-09-18T01:23:48;99399.81;;;16.55;95.09
44697;BME280;57264;47.480;19.354;2023-09-18T01:26:14;99405.50;;;16.47;95.72
44697;BME280;57264;47.480;19.354;2023-09-18T01:28:39;99408.81;;;16.54;95.64
44697;BME280;57264;47.480;19.354;2023-09-18T01:31:05;99402.94;;;16.52;95.64
44697;BME280;57264;47.480;19.354;2023-09-18T01:33:30;99416.31;;;16.57;95.42
44697;BME280;57264;47.480;19.354;2023-09-18T01:35:56;99409.28;;;16.51;95.74
44697;BME280;57264;47.480;19.354;2023-09-18T01:38:22;99409.19;;;16.46;95.75
44697;BME280;57264;47.480;19.354;2023-09-18T01:40:49;99411.94;;;16.51;95.53
44697;BME280;57264;47.480;19.354;2023-09-18T01:43:14;99411.38;;;16.49;95.64
44697;BME280;57264;47.480;19.354;2023-09-18T01:45:40;99408.00;;;16.36;96.30
44697;BME280;57264;47.480;19.354;2023-09-18T01:48:05;99410.56;;;16.31;96.71
44697;BME280;57264;47.480;19.354;2023-09-18T01:50:32;99409.78;;;16.48;95.84
44697;BME280;57264;47.480;19.354;2023-09-18T01:52:58;99409.28;;;16.51;95.56
44697;BME280;57264;47.480;19.354;2023-09-18T01:55:23;99405.28;;;16.48;95.55
44697;BME280;57264;47.480;19.354;2023-09-18T01:57:49;99405.28;;;16.48;95.40
44697;BME280;57264;47.480;19.354;2023-09-18T02:00:14;99412.84;;;16.56;94.89
44697;BME280;57264;47.480;19.354;2023-09-18T02:02:40;99414.81;;;16.49;95.28
44697;BME280;57264;47.480;19.354;2023-09-18T02:05:05;99410.66;;;16.36;95.97
44697;BME280;57264;47.480;19.354;2023-09-18T02:07:31;99411.19;;;16.38;95.77
44697;BME280;57264;47.480;19.354;2023-09-18T02:09:57;99408.78;;;16.37;96.34
44697;BME280;57264;47.480;19.354;2023-09-18T02:12:22;99416.28;;;16.40;95.99
44697;BME280;57264;47.480;19.354;2023-09-18T02:14:47;99410.66;;;16.36;96.13
44697;BME280;57264;47.480;19.354;2023-09-18T02:17:13;99407.91;;;16.31;96.38
44697;BME280;57264;47.480;19.354;2023-09-18T02:19:38;99404.94;;;16.28;96.70
44697;BME280;57264;47.480;19.354;2023-09-18T02:22:03;99401.31;;;16.34;96.32
44697;BME280;57264;47.480;19.354;2023-09-18T02:24:29;99393.72;;;16.54;94.96
44697;BME280;57264;47.480;19.354;2023-09-18T02:26:54;99395.91;;;16.57;94.86
44697;BME280;57264;47.480;19.354;2023-09-18T02:29:19;99401.44;;;16.56;94.65
44697;BME280;57264;47.480;19.354;2023-09-18T02:31:45;99396.63;;;16.53;94.97
44697;BME280;57264;47.480;19.354;2023-09-18T02:34:11;99404.97;;;16.45;95.52
44697;BME280;57264;47.480;19.354;2023-09-18T02:36:36;99401.72;;;16.43;95.42
44697;BME280;57264;47.480;19.354;2023-09-18T02:39:02;99404.38;;;16.43;95.33
44697;BME280;57264;47.480;19.354;2023-09-18T02:41:27;99401.41;;;16.39;95.71
44697;BME280;57264;47.480;19.354;2023-09-18T02:43:53;99404.88;;;16.39;95.75
44697;BME280;57264;47.480;19.354;2023-09-18T02:46:18;99401.19;;;16.41;95.86
44697;BME280;57264;47.480;19.354;2023-09-18T02:48:44;99399.06;;;16.43;95.64
44697;BME280;57264;47.480;19.354;2023-09-18T02:51:09;99408.63;;;16.44;95.88
44697;BME280;57264;47.480;19.354;2023-09-18T02:53:35;99400.28;;;16.35;96.13
44697;BME280;57264;47.480;19.354;2023-09-18T02:56:00;99407.25;;;16.24;96.59
44697;BME280;57264;47.480;19.354;2023-09-18T02:58:26;99410.28;;;16.33;96.42
44697;BME280;57264;47.480;19.354;2023-09-18T03:00:55;99412.78;;;16.23;96.85
44697;BME280;57264;47.480;19.354;2023-09-18T03:03:20;99411.41;;;16.20;97.17
44697;BME280;57264;47.480;19.354;2023-09-18T03:05:46;99411.91;;;16.34;96.44
44697;BME280;57264;47.480;19.354;2023-09-18T03:08:12;99412.38;;;16.31;96.20
44697;BME280;57264;47.480;19.354;2023-09-18T03:10:38;99412.56;;;16.24;96.94
44697;BME280;57264;47.480;19.354;2023-09-18T03:13:04;99414.34;;;16.35;96.32
44697;BME280;57264;47.480;19.354;2023-09-18T03:15:31;99410.44;;;16.26;96.90
44697;BME280;57264;47.480;19.354;2023-09-18T03:18:00;99402.81;;;16.30;96.81
44697;BME280;57264;47.480;19.354;2023-09-18T03:20:26;99400.44;;;16.28;96.66
44697;BME280;57264;47.480;19.354;2023-09-18T03:22:54;99399.31;;;16.24;97.11
44697;BME280;57264;47.480;19.354;2023-09-18T03:25:19;99395.59;;;16.25;96.89
44697;BME280;57264;47.480;19.354;2023-09-18T03:27:45;99404.50;;;16.19;97.30
44697;BME280;57264;47.480;19.354;2023-09-18T03:30:10;99403.59;;;16.14;97.44
44697;BME280;57264;47.480;19.354;2023-09-18T03:32:41;99401.66;;;16.09;98.09
44697;BME280;57264;47.480;19.354;2023-09-18T03:35:06;99402.66;;;16.20;97.41
44697;BME280;57264;47.480;19.354;2023-09-18T03:37:34;99401.66;;;16.09;97.87
44697;BME280;57264;47.480;19.354;2023-09-18T03:39:59;99394.84;;;16.13;98.00
44697;BME280;57264;47.480;19.354;2023-09-18T03:42:25;99395.91;;;16.12;98.23
44697;BME280;57264;47.480;19.354;2023-09-18T03:44:51;99388.34;;;16.04;98.87
44697;BME280;57264;47.480;19.354;2023-09-18T03:47:16;99388.66;;;16.08;98.21
44697;BME280;57264;47.480;19.354;2023-09-18T03:49:41;99386.72;;;16.03;98.42
44697;BME280;57264;47.480;19.354;2023-09-18T03:52:07;99390.66;;;16.01;98.55
44697;BME280;57264;47.480;19.354;2023-09-18T03:54:32;99394.56;;;15.98;99.17
44697;BME280;57264;47.480;19.354;2023-09-18T03:56:57;99395.22;;;16.05;98.66
44697;BME280;57264;47.480;19.354;2023-09-18T03:59:23;99385.69;;;16.04;98.29
44697;BME280;57264;47.480;19.354;2023-09-18T04:01:48;99386.06;;;15.96;98.85
44697;BME280;57264;47.480;19.354;2023-09-18T04:04:15;99380.34;;;15.87;99.94
44697;BME280;57264;47.480;19.354;2023-09-18T04:06:41;99383.94;;;15.81;100.00
44697;BME280;57264;47.480;19.354;2023-09-18T04:09:06;99385.44;;;15.77;100.00
44697;BME280;57264;47.480;19.354;2023-09-18T04:11:32;99384.03;;;15.86;100.00
44697;BME280;57264;47.480;19.354;2023-09-18T04:14:00;99378.50;;;15.88;100.00
44697;BME280;57264;47.480;19.354;2023-09-18T04:16:26;99373.00;;;15.78;100.00
44697;BME280;57264;47.480;19.354;2023-09-18T04:19:02;99375.91;;;15.76;100.00
44697;BME280;57264;47.480;19.354;2023-09-18T04:21:27;99373.16;;;15.71;100.00
44697;BME280;57264;47.480;19.354;2023-09-18T04:23:55;99371.69;;;15.64;100.00
44697;BME280;57264;47.480;19.354;2023-09-18T04:26:25;99381.13;;;15.60;100.00
44697;BME280;57264;47.480;19.354;2023-09-18T04:28:55;99374.06;;;15.65;100.00
44697;BME280;57264;47.480;19.354;2023-09-18T04:31:20;99368.34;;;15.57;100.00
44697;BME280;57264;47.480;19.354;2023-09-18T04:33:45;99366.28;;;15.59;100.00
44697;BME280;57264;47.480;19.354;2023-09-18T04:36:11;99366.84;;;15.61;100.00
44697;BME280;57264;47.480;19.354;2023-09-18T04:38:36;99362.94;;;15.63;100.00
44697;BME280;57264;47.480;19.354;2023-09-18T04:41:02;99369.84;;;15.64;100.00
44697;BME280;57264;47.480;19.354;2023-09-18T04:43:28;99355.22;;;15.62;100.00
44697;BME280;57264;47.480;19.354;2023-09-18T04:45:55;99365.69;;;15.68;100.00
44697;BME280;57264;47.480;19.354;2023-09-18T04:48:21;99367.06;;;15.71;100.00
44697;BME280;57264;47.480;19.354;2023-09-18T04:50:46;99374.84;;;15.77;100.00
44697;BME280;57264;47.480;19.354;2023-09-18T04:53:12;99371.66;;;15.75;100.00
44697;BME280;57264;47.480;19.354;2023-09-18T04:55:38;99379.44;;;15.82;99.87
44697;BME280;57264;47.480;19.354;2023-09-18T04:58:03;99377.50;;;15.77;100.00
44697;BME280;57264;47.480;19.354;2023-09-18T05:00:29;99373.25;;;15.76;100.00
44697;BME280;57264;47.480;19.354;2023-09-18T05:02:57;99364.25;;;15.77;100.00
44697;BME280;57264;47.480;19.354;2023-09-18T05:05:23;99369.88;;;15.81;100.00
44697;BME280;57264;47.480;19.354;2023-09-18T05:07:48;99364.91;;;15.96;99.12
44697;BME280;57264;47.480;19.354;2023-09-18T05:10:14;99361.09;;;17.04;92.11
44697;BME280;57264;47.480;19.354;2023-09-18T05:12:39;99363.72;;;17.20;89.87
44697;BME280;57264;47.480;19.354;2023-09-18T05:15:05;99368.03;;;17.05;91.33
44697;BME280;57264;47.480;19.354;2023-09-18T05:18:04;99376.81;;;16.89;91.90
44697;BME280;57264;47.480;19.354;2023-09-18T05:20:27;99372.72;;;16.81;92.90
44697;BME280;57264;47.480;19.354;2023-09-18T05:22:55;99366.72;;;17.07;91.10
44697;BME280;57264;47.480;19.354;2023-09-18T05:25:21;99367.94;;;17.00;90.78
44697;BME280;57264;47.480;19.354;2023-09-18T05:27:48;99361.91;;;17.26;90.41
44697;BME280;57264;47.480;19.354;2023-09-18T05:30:15;99361.88;;;17.43;88.37
44697;BME280;57264;47.480;19.354;2023-09-18T05:32:42;99357.13;;;17.45;88.33
44697;BME280;57264;47.480;19.354;2023-09-18T05:35:08;99357.56;;;17.80;86.14
44697;BME280;57264;47.480;19.354;2023-09-18T05:37:36;99362.31;;;17.56;87.74
44697;BME280;57264;47.480;19.354;2023-09-18T05:40:03;99354.91;;;17.80;85.90
44697;BME280;57264;47.480;19.354;2023-09-18T05:42:30;99356.25;;;17.83;85.62
44697;BME280;57264;47.480;19.354;2023-09-18T05:44:56;99354.41;;;18.10;84.79
44697;BME280;57264;47.480;19.354;2023-09-18T05:47:21;99359.41;;;18.01;84.06
44697;BME280;57264;47.480;19.354;2023-09-18T05:49:48;99347.75;;;17.81;84.74
44697;BME280;57264;47.480;19.354;2023-09-18T05:52:13;99347.88;;;18.22;84.32
44697;BME280;57264;47.480;19.354;2023-09-18T05:54:38;99345.91;;;18.40;82.93
44697;BME280;57264;47.480;19.354;2023-09-18T05:57:04;99337.44;;;18.75;81.37
44697;BME280;57264;47.480;19.354;2023-09-18T05:59:29;99331.81;;;18.71;81.15
44697;BME280;57264;47.480;19.354;2023-09-18T06:01:55;99336.34;;;18.70;81.00
44697;BME280;57264;47.480;19.354;2023-09-18T06:04:20;99333.84;;;18.96;81.29
44697;BME280;57264;47.480;19.354;2023-09-18T06:06:46;99340.69;;;18.87;79.51
44697;BME280;57264;47.480;19.354;2023-09-18T06:09:12;99341.34;;;19.56;77.45
44697;BME280;57264;47.480;19.354;2023-09-18T06:11:38;99328.19;;;19.39;77.51
44697;BME280;57264;47.480;19.354;2023-09-18T06:14:04;99330.94;;;19.54;76.45
44697;BME280;57264;47.480;19.354;2023-09-18T06:16:30;99323.06;;;19.23;77.55
44697;BME280;57264;47.480;19.354;2023-09-18T06:18:55;99323.72;;;19.50;76.37
44697;BME280;57264;47.480;19.354;2023-09-18T06:21:21;99326.66;;;19.43;77.18
44697;BME280;57264;47.480;19.354;2023-09-18T06:23:46;99327.47;;;19.49;76.24
44697;BME280;57264;47.480;19.354;2023-09-18T06:26:12;99330.47;;;19.73;75.09
44697;BME280;57264;47.480;19.354;2023-09-18T06:28:37;99328.66;;;19.21;78.09
44697;BME280;57264;47.480;19.354;2023-09-18T06:31:03;99328.31;;;19.59;75.56
44697;BME280;57264;47.480;19.354;2023-09-18T06:33:29;99326.25;;;20.07;73.90
44697;BME280;57264;47.480;19.354;2023-09-18T06:35:55;99326.50;;;19.80;74.73
44697;BME280;57264;47.480;19.354;2023-09-18T06:38:20;99318.00;;;19.93;74.40
44697;BME280;57264;47.480;19.354;2023-09-18T06:40:46;99316.09;;;19.74;75.17
44697;BME280;57264;47.480;19.354;2023-09-18T06:43:12;99318.22;;;19.77;75.82
44697;BME280;57264;47.480;19.354;2023-09-18T06:45:37;99315.31;;;19.83;75.29
44697;BME280;57264;47.480;19.354;2023-09-18T06:48:03;99316.06;;;19.63;75.73
44697;BME280;57264;47.480;19.354;2023-09-18T06:50:29;99321.16;;;19.75;75.50
44697;BME280;57264;47.480;19.354;2023-09-18T06:52:54;99335.22;;;19.55;75.85
44697;BME280;57264;47.480;19.354;2023-09-18T06:55:19;99327.25;;;19.60;76.13
44697;BME280;57264;47.480;19.354;2023-09-18T06:57:45;99326.34;;;19.40;77.30
44697;BME280;57264;47.480;19.354;2023-09-18T07:00:12;99326.69;;;19.53;76.75
44697;BME280;57264;47.480;19.354;2023-09-18T07:02:40;99319.03;;;19.77;75.79
44697;BME280;57264;47.480;19.354;2023-09-18T07:05:05;99321.88;;;19.50;77.01
44697;BME280;57264;47.480;19.354;2023-09-18T07:07:31;99310.00;;;19.88;75.64
44697;BME280;57264;47.480;19.354;2023-09-18T07:09:57;99311.13;;;20.33;72.92
44697;BME280;57264;47.480;19.354;2023-09-18T07:12:23;99312.97;;;20.47;72.38
44697;BME280;57264;47.480;19.354;2023-09-18T07:14:49;99308.97;;;20.70;71.74
44697;BME280;57264;47.480;19.354;2023-09-18T07:17:14;99313.44;;;20.95;71.11
44697;BME280;57264;47.480;19.354;2023-09-18T07:19:40;99310.38;;;21.37;69.53
44697;BME280;57264;47.480;19.354;2023-09-18T07:22:05;99315.44;;;21.38;70.22
44697;BME280;57264;47.480;19.354;2023-09-18T07:24:31;99320.53;;;21.35;69.56
44697;BME280;57264;47.480;19.354;2023-09-18T07:26:56;99317.34;;;21.28;69.09
44697;BME280;57264;47.480;19.354;2023-09-18T07:29:25;99326.13;;;21.38;69.56
44697;BME280;57264;47.480;19.354;2023-09-18T07:31:50;99333.09;;;21.83;67.10
44697;BME280;57264;47.480;19.354;2023-09-18T07:34:16;99327.97;;;21.48;68.07
44697;BME280;57264;47.480;19.354;2023-09-18T07:36:42;99334.00;;;22.18;65.58
44697;BME280;57264;47.480;19.354;2023-09-18T07:39:09;99329.78;;;21.58;68.64
44697;BME280;57264;47.480;19.354;2023-09-18T07:41:34;99339.09;;;21.70;67.11
44697;BME280;57264;47.480;19.354;2023-09-18T07:43:59;99338.75;;;21.77;67.34
44697;BME280;57264;47.480;19.354;2023-09-18T07:46:25;99338.69;;;21.87;66.85
44697;BME280;57264;47.480;19.354;2023-09-18T07:48:50;99329.28;;;22.00;66.70
44697;BME280;57264;47.480;19.354;2023-09-18T07:51:16;99321.22;;;22.10;66.71
44697;BME280;57264;47.480;19.354;2023-09-18T07:53:41;99325.66;;;21.75;66.38
44697;BME280;57264;47.480;19.354;2023-09-18T07:56:07;99330.72;;;22.26;66.94
44697;BME280;57264;47.480;19.354;2023-09-18T07:58:32;99323.41;;;22.36;64.88
44697;BME280;57264;47.480;19.354;2023-09-18T08:00:58;99314.44;;;22.85;63.76
44697;BME280;57264;47.480;19.354;2023-09-18T08:03:24;99321.31;;;22.91;63.32
44697;BME280;57264;47.480;19.354;2023-09-18T08:05:50;99319.84;;;23.04;62.59
44697;BME280;57264;47.480;19.354;2023-09-18T08:08:17;99329.19;;;22.15;66.08
44697;BME280;57264;47.480;19.354;2023-09-18T08:10:42;99322.06;;;22.00;66.36
44697;BME280;57264;47.480;19.354;2023-09-18T08:13:08;99322.09;;;22.34;64.77
44697;BME280;57264;47.480;19.354;2023-09-18T08:15:34;99325.41;;;22.21;64.81
44697;BME280;57264;47.480;19.354;2023-09-18T08:17:59;99316.97;;;22.43;64.88
44697;BME280;57264;47.480;19.354;2023-09-18T08:20:26;99321.88;;;22.30;65.08
44697;BME280;57264;47.480;19.354;2023-09-18T08:22:51;99306.00;;;22.39;64.88
44697;BME280;57264;47.480;19.354;2023-09-18T08:25:16;99307.78;;;22.82;64.50
44697;BME280;57264;47.480;19.354;2023-09-18T08:27:42;99298.75;;;23.21;62.63
44697;BME280;57264;47.480;19.354;2023-09-18T08:30:09;99300.06;;;23.00;64.71
44697;BME280;57264;47.480;19.354;2023-09-18T08:32:36;99289.13;;;23.20;62.67
44697;BME280;57264;47.480;19.354;2023-09-18T08:35:01;99295.78;;;22.75;63.55
44697;BME280;57264;47.480;19.354;2023-09-18T08:37:27;99280.28;;;23.43;62.77
44697;BME280;57264;47.480;19.354;2023-09-18T08:39:53;99287.16;;;23.07;62.65
44697;BME280;57264;47.480;19.354;2023-09-18T08:42:18;99275.25;;;23.18;62.73
44697;BME280;57264;47.480;19.354;2023-09-18T08:44:45;99272.50;;;23.23;63.01
44697;BME280;57264;47.480;19.354;2023-09-18T08:47:13;99262.69;;;23.93;60.94
44697;BME280;57264;47.480;19.354;2023-09-18T08:49:40;99267.06;;;23.70;60.79
44697;BME280;57264;47.480;19.354;2023-09-18T08:52:06;99258.44;;;23.73;60.70
44697;BME280;57264;47.480;19.354;2023-09-18T08:54:33;99268.84;;;23.94;59.51
44697;BME280;57264;47.480;19.354;2023-09-18T08:56:58;99266.53;;;23.68;61.30
44697;BME280;57264;47.480;19.354;2023-09-18T08:59:24;99276.63;;;23.58;60.92
44697;BME280;57264;47.480;19.354;2023-09-18T09:01:50;99275.16;;;23.84;60.37
44697;BME280;57264;47.480;19.354;2023-09-18T09:04:15;99262.13;;;24.29;60.35
44697;BME280;57264;47.480;19.354;2023-09-18T09:06:41;99258.88;;;24.13;58.93
44697;BME280;57264;47.480;19.354;2023-09-18T09:09:06;99251.28;;;24.20;58.73
44697;BME280;57264;47.480;19.354;2023-09-18T09:11:33;99262.09;;;24.15;59.39
44697;BME280;57264;47.480;19.354;2023-09-18T09:14:11;99255.13;;;23.95;59.23
44697;BME280;57264;47.480;19.354;2023-09-18T09:16:41;99258.16;;;24.26;58.60
44697;BME280;57264;47.480;19.354;2023-09-18T09:19:11;99248.31;;;24.95;57.81
44697;BME280;57264;47.480;19.354;2023-09-18T09:21:40;99253.91;;;24.52;57.96
44697;BME280;57264;47.480;19.354;2023-09-18T09:24:06;99252.56;;;24.55;58.02
44697;BME280;57264;47.480;19.354;2023-09-18T09:26:32;99255.13;;;24.60;57.27
44697;BME280;57264;47.480;19.354;2023-09-18T09:28:57;99274.97;;;24.91;57.81
44697;BME280;57264;47.480;19.354;2023-09-18T09:31:38;99271.88;;;24.98;56.47
44697;BME280;57264;47.480;19.354;2023-09-18T09:34:04;99276.53;;;24.33;57.45
44697;BME280;57264;47.480;19.354;2023-09-18T09:49:06;99266.47;;;25.25;56.14
44697;BME280;57264;47.480;19.354;2023-09-18T09:51:32;99260.81;;;25.13;55.83
44697;BME280;57264;47.480;19.354;2023-09-18T09:53:58;99262.75;;;25.84;54.61
44697;BME280;57264;47.480;19.354;2023-09-18T09:59:08;99267.78;;;25.14;55.72
44697;BME280;57264;47.480;19.354;2023-09-18T10:01:35;99264.91;;;25.74;55.63
44697;BME280;57264;47.480;19.354;2023-09-18T10:04:04;99269.25;;;25.34;55.66
44697;BME280;57264;47.480;19.354;2023-09-18T10:06:33;99263.13;;;25.20;55.34
44697;BME280;57264;47.480;19.354;2023-09-18T10:08:59;99247.13;;;25.50;54.66
44697;BME280;57264;47.480;19.354;2023-09-18T10:11:25;99244.13;;;25.66;53.85
44697;BME280;57264;47.480;19.354;2023-09-18T10:13:57;99234.53;;;25.73;53.81
44697;BME280;57264;47.480;19.354;2023-09-18T10:16:25;99227.44;;;25.41;55.54
44697;BME280;57264;47.480;19.354;2023-09-18T10:21:38;99220.38;;;25.45;54.01
44697;BME280;57264;47.480;19.354;2023-09-18T10:24:28;99209.44;;;26.08;53.05
44697;BME280;57264;47.480;19.354;2023-09-18T10:26:55;99214.59;;;26.19;52.79
44697;BME280;57264;47.480;19.354;2023-09-18T10:29:22;99211.81;;;25.43;53.74
44697;BME280;57264;47.480;19.354;2023-09-18T10:31:48;99206.53;;;25.96;53.15
44697;BME280;57264;47.480;19.354;2023-09-18T10:34:15;99202.13;;;26.23;51.97
44697;BME280;57264;47.480;19.354;2023-09-18T10:36:41;99215.94;;;26.30;51.54
44697;BME280;57264;47.480;19.354;2023-09-18T10:39:09;99212.84;;;25.70;52.83
44697;BME280;57264;47.480;19.354;2023-09-18T10:41:37;99207.16;;;26.16;51.86
44697;BME280;57264;47.480;19.354;2023-09-18T10:44:02;99197.13;;;26.78;51.21
44697;BME280;57264;47.480;19.354;2023-09-18T10:46:29;99207.03;;;26.21;51.36
44697;BME280;57264;47.480;19.354;2023-09-18T10:48:55;99199.75;;;25.99;51.98
44697;BME280;57264;47.480;19.354;2023-09-18T10:51:21;99202.09;;;25.70;52.75
44697;BME280;57264;47.480;19.354;2023-09-18T10:53:47;99189.56;;;26.18;51.83
44697;BME280;57264;47.480;19.354;2023-09-18T10:56:14;99183.31;;;26.23;51.53
44697;BME280;57264;47.480;19.354;2023-09-18T10:58:40;99187.50;;;26.15;52.06
44697;BME280;57264;47.480;19.354;2023-09-18T11:01:06;99177.16;;;26.31;52.34
44697;BME280;57264;47.480;19.354;2023-09-18T11:03:34;99167.63;;;26.25;51.09
44697;BME280;57264;47.480;19.354;2023-09-18T11:06:03;99163.31;;;25.93;52.24
44697;BME280;57264;47.480;19.354;2023-09-18T11:08:48;99157.03;;;26.28;50.45
44697;BME280;57264;47.480;19.354;2023-09-18T11:11:16;99158.06;;;27.06;50.02
44697;BME280;57264;47.480;19.354;2023-09-18T11:13:45;99152.44;;;26.77;50.98
44697;BME280;57264;47.480;19.354;2023-09-18T11:16:15;99157.59;;;26.56;50.44
44697;BME280;57264;47.480;19.354;2023-09-18T11:18:41;99149.16;;;26.40;50.84
44697;BME280;57264;47.480;19.354;2023-09-18T11:21:10;99149.25;;;26.66;49.96
44697;BME280;57264;47.480;19.354;2023-09-18T11:23:36;99145.88;;;27.17;48.74
44697;BME280;57264;47.480;19.354;2023-09-18T11:26:21;99146.97;;;26.99;48.91
44697;BME280;57264;47.480;19.354;2023-09-18T11:28:46;99148.72;;;26.95;49.42
44697;BME280;57264;47.480;19.354;2023-09-18T11:31:13;99150.16;;;26.53;49.31
44697;BME280;57264;47.480;19.354;2023-09-18T11:33:40;99149.88;;;26.63;50.62
44697;BME280;57264;47.480;19.354;2023-09-18T11:38:32;99136.84;;;27.39;48.42
44697;BME280;57264;47.480;19.354;2023-09-18T11:41:01;99127.00;;;27.17;48.02
44697;BME280;57264;47.480;19.354;2023-09-18T11:43:44;99131.84;;;26.81;48.51
44697;BME280;57264;47.480;19.354;2023-09-18T11:46:10;99126.53;;;26.41;49.54
44697;BME280;57264;47.480;19.354;2023-09-18T11:48:37;99127.63;;;26.97;49.24
44697;BME280;57264;47.480;19.354;2023-09-18T11:51:06;99131.75;;;26.86;49.14
44697;BME280;57264;47.480;19.354;2023-09-18T11:53:36;99118.50;;;26.59;50.25
44697;BME280;57264;47.480;19.354;2023-09-18T11:56:03;99132.03;;;26.28;50.47
44697;BME280;57264;47.480;19.354;2023-09-18T11:58:28;99116.09;;;26.48;49.75
44697;BME280;57264;47.480;19.354;2023-09-18T12:00:54;99122.41;;;26.04;51.01
44697;BME280;57264;47.480;19.354;2023-09-18T12:05:57;99108.44;;;27.24;48.53
44697;BME280;57264;47.480;19.354;2023-09-18T12:08:23;99099.59;;;27.07;47.86
44697;BME280;57264;47.480;19.354;2023-09-18T12:10:51;99095.44;;;26.83;48.22
44697;BME280;57264;47.480;19.354;2023-09-18T12:13:17;99092.78;;;27.26;47.74
44697;BME280;57264;47.480;19.354;2023-09-18T12:15:43;99087.22;;;26.97;47.50
44697;BME280;57264;47.480;19.354;2023-09-18T12:18:09;99092.38;;;26.50;49.57
44697;BME280;57264;47.480;19.354;2023-09-18T12:20:37;99086.91;;;26.25;49.39
44697;BME280;57264;47.480;19.354;2023-09-18T12:23:02;99088.19;;;25.96;49.84
44697;BME280;57264;47.480;19.354;2023-09-18T12:25:28;99080.25;;;26.22;49.75
44697;BME280;57264;47.480;19.354;2023-09-18T12:27:53;99071.63;;;26.68;48.85
44697;BME280;57264;47.480;19.354;2023-09-18T12:30:19;99062.34;;;26.91;48.46
44697;BME280;57264;47.480;19.354;2023-09-18T12:32:48;99066.41;;;27.40;46.75
44697;BME280;57264;47.480;19.354;2023-09-18T12:35:14;99076.59;;;27.26;47.06
44697;BME280;57264;47.480;19.354;2023-09-18T12:37:40;99078.34;;;26.96;47.96
44697;BME280;57264;47.480;19.354;2023-09-18T12:40:06;99075.34;;;27.15;48.18
44697;BME280;57264;47.480;19.354;2023-09-18T12:42:38;99074.69;;;27.18;47.67
44697;BME280;57264;47.480;19.354;2023-09-18T12:45:06;99066.63;;;26.84;48.27
44697;BME280;57264;47.480;19.354;2023-09-18T12:47:32;99066.25;;;26.77;47.99
44697;BME280;57264;47.480;19.354;2023-09-18T12:50:03;99066.13;;;27.25;47.42
44697;BME280;57264;47.480;19.354;2023-09-18T12:52:29;99054.84;;;27.57;47.01
44697;BME280;57264;47.480;19.354;2023-09-18T12:54:54;99057.72;;;27.26;46.74
44697;BME280;57264;47.480;19.354;2023-09-18T12:57:21;99069.31;;;27.01;47.68
44697;BME280;57264;47.480;19.354;2023-09-18T12:59:46;99060.59;;;26.87;45.86
44697;BME280;57264;47.480;19.354;2023-09-18T13:02:14;99067.06;;;27.29;46.91
44697;BME280;57264;47.480;19.354;2023-09-18T13:04:39;99055.47;;;28.01;45.51
44697;BME280;57264;47.480;19.354;2023-09-18T13:07:12;99046.06;;;27.69;45.40
44697;BME280;57264;47.480;19.354;2023-09-18T13:09:38;99047.75;;;26.92;45.98